createdAt,value
2018-04-23T00:01:34.135Z,99.90
2018-04-23T00:04:02.223Z,99.90
2018-04-23T00:06:29.161Z,99.90
2018-04-23T00:09:04.020Z,99.90
2018-04-23T00:14:15.899Z,99.90
2018-04-23T00:16:49.690Z,99.90
2018-04-23T00:19:23.432Z,99.90
2018-04-23T00:21:59.342Z,99.90
2018-04-23T00:24:26.837Z,99.90
2018-04-23T00:26:54.433Z,99.90
2018-04-23T00:29:36.696Z,99.90
2018-04-23T00:32:13.810Z,99.90
2018-04-23T00:34:41.467Z,99.90
2018-04-23T00:37:08.358Z,99.90
2018-04-23T00:39:35.291Z,99.90
2018-04-23T00:42:10.436Z,99.90
2018-04-23T00:44:51.530Z,99.90
2018-04-23T00:47:31.769Z,99.90
2018-04-23T00:50:03.784Z,99.90
2018-04-23T00:52:31.513Z,99.90
2018-04-23T00:54:58.446Z,99.90
2018-04-23T00:57:25.307Z,99.80
2018-04-23T00:59:52.187Z,99.80
2018-04-23T01:02:19.183Z,99.90
2018-04-23T01:04:46.034Z,99.70
2018-04-23T01:07:12.981Z,99.50
2018-04-23T01:09:39.926Z,99.40
2018-04-23T01:12:06.926Z,99.20
2018-04-23T01:14:33.880Z,99.50
2018-04-23T01:17:00.759Z,99.10
2018-04-23T01:19:33.889Z,99.10
2018-04-23T01:22:14.159Z,99.40
2018-04-23T01:24:42.336Z,98.90
2018-04-23T01:27:09.234Z,98.90
2018-04-23T01:29:36.149Z,99.10
2018-04-23T01:32:03.009Z,98.60
2018-04-23T01:34:29.949Z,98.70
2018-04-23T01:36:56.929Z,99.10
2018-04-23T01:39:23.888Z,98.60
2018-04-23T01:41:51.485Z,98.50
2018-04-23T01:44:18.357Z,98.50
2018-04-23T01:46:45.286Z,98.50
2018-04-23T01:49:12.157Z,98.30
2018-04-23T01:51:39.083Z,98.40
2018-04-23T01:54:05.974Z,98.30
2018-04-23T01:56:33.669Z,98.30
2018-04-23T01:59:00.534Z,98.30
2018-04-23T02:01:27.722Z,98.00
2018-04-23T02:03:54.751Z,98.00
2018-04-23T02:06:22.255Z,98.10
2018-04-23T02:08:50.513Z,98.20
2018-04-23T02:11:18.621Z,98.00
2018-04-23T02:13:45.921Z,98.00
2018-04-23T02:16:13.544Z,97.90
2018-04-23T02:18:41.661Z,97.90
2018-04-23T02:21:08.915Z,97.90
2018-04-23T02:23:36.261Z,97.90
2018-04-23T02:26:03.363Z,97.80
2018-04-23T02:28:31.194Z,97.60
2018-04-23T02:30:59.562Z,97.60
2018-04-23T02:33:27.214Z,97.90
2018-04-23T02:35:55.168Z,97.50
2018-04-23T02:38:22.654Z,98.10
2018-04-23T02:40:50.766Z,97.30
2018-04-23T02:43:18.732Z,97.20
2018-04-23T02:45:46.498Z,97.30
2018-04-23T02:48:15.406Z,97.30
2018-04-23T02:50:42.533Z,97.30
2018-04-23T02:53:10.733Z,97.50
2018-04-23T02:55:38.106Z,97.50
2018-04-23T02:58:05.547Z,97.30
2018-04-23T03:00:33.800Z,97.30
2018-04-23T03:03:02.911Z,97.20
2018-04-23T03:05:29.943Z,97.20
2018-04-23T03:07:57.620Z,97.10
2018-04-23T03:10:24.686Z,97.30
2018-04-23T03:12:51.965Z,97.40
2018-04-23T03:15:19.926Z,97.30
2018-04-23T03:17:48.084Z,97.30
2018-04-23T03:20:16.113Z,97.00
2018-04-23T03:22:43.807Z,97.20
2018-04-23T03:25:10.846Z,97.50
2018-04-23T03:27:38.838Z,97.40
2018-04-23T03:30:07.368Z,97.40
2018-04-23T03:32:34.781Z,97.60
2018-04-23T03:35:02.696Z,97.60
2018-04-23T03:37:30.076Z,97.70
2018-04-23T03:39:57.869Z,97.60
2018-04-23T03:42:25.815Z,97.60
2018-04-23T03:44:53.581Z,97.60
2018-04-23T03:47:20.670Z,97.60
2018-04-23T03:49:48.759Z,97.40
2018-04-23T03:52:16.641Z,97.40
2018-04-23T03:54:45.630Z,97.40
2018-04-23T03:57:12.801Z,97.30
2018-04-23T03:59:40.280Z,97.40
2018-04-23T04:02:07.570Z,97.20
2018-04-23T04:04:34.699Z,97.30
2018-04-23T04:07:02.046Z,97.90
2018-04-23T04:09:29.437Z,97.30
2018-04-23T04:11:56.650Z,97.40
2018-04-23T04:14:36.404Z,97.80
2018-04-23T04:17:03.589Z,97.40
2018-04-23T04:19:31.652Z,97.70
2018-04-23T04:21:59.142Z,98.10
2018-04-23T04:24:26.387Z,97.60
2018-04-23T04:26:53.828Z,97.80
2018-04-23T04:29:29.670Z,98.60
2018-04-23T04:31:56.593Z,98.10
2018-04-23T04:34:23.527Z,98.20
2018-04-23T04:36:52.280Z,98.60
2018-04-23T04:39:19.259Z,98.60
2018-04-23T04:41:47.474Z,98.50
2018-04-23T04:44:14.363Z,98.50
2018-04-23T04:46:43.349Z,98.70
2018-04-23T04:49:12.990Z,99.10
2018-04-23T04:51:39.951Z,99.10
2018-04-23T04:54:08.195Z,98.90
2018-04-23T04:56:35.132Z,99.10
2018-04-23T04:59:04.585Z,99.20
2018-04-23T05:01:31.572Z,99.40
2018-04-23T05:03:58.585Z,99.30
2018-04-23T05:06:25.512Z,99.30
2018-04-23T05:08:52.439Z,99.10
2018-04-23T05:11:20.103Z,99.10
2018-04-23T05:13:47.764Z,99.20
2018-04-23T05:16:15.485Z,99.40
2018-04-23T05:18:42.359Z,99.40
2018-04-23T05:21:09.233Z,98.90
2018-04-23T05:23:36.171Z,98.90
2018-04-23T05:26:03.125Z,98.90
2018-04-23T05:28:30.887Z,98.90
2018-04-23T05:30:58.573Z,99.10
2018-04-23T05:33:25.474Z,99.10
2018-04-23T05:35:52.348Z,99.20
2018-04-23T05:38:19.280Z,99.30
2018-04-23T05:40:46.969Z,99.40
2018-04-23T05:43:13.840Z,99.40
2018-04-23T05:45:40.866Z,99.60
2018-04-23T05:48:07.739Z,99.80
2018-04-23T05:50:34.750Z,99.70
2018-04-23T05:53:01.699Z,99.90
2018-04-23T05:55:28.596Z,99.80
2018-04-23T05:57:55.532Z,99.90
2018-04-23T06:00:22.407Z,99.90
2018-04-23T06:02:50.086Z,99.50
2018-04-23T06:05:17.081Z,99.50
2018-04-23T06:07:43.907Z,99.40
2018-04-23T06:10:10.836Z,99.80
2018-04-23T06:12:37.770Z,99.40
2018-04-23T06:15:04.710Z,99.40
2018-04-23T06:17:31.659Z,99.70
2018-04-23T06:19:58.636Z,99.70
2018-04-23T06:22:25.533Z,99.90
2018-04-23T06:24:53.197Z,99.90
2018-04-23T06:27:20.871Z,99.90
2018-04-23T06:29:47.745Z,99.90
2018-04-23T06:32:14.657Z,99.90
2018-04-23T06:34:42.286Z,99.90
2018-04-23T06:37:09.229Z,99.90
2018-04-23T06:39:36.107Z,99.90
2018-04-23T06:42:10.014Z,99.90
2018-04-23T06:44:36.944Z,99.90
2018-04-23T06:47:03.892Z,99.90
2018-04-23T06:49:30.855Z,99.90
2018-04-23T06:51:58.772Z,99.90
2018-04-23T06:54:25.771Z,99.90
2018-04-23T06:56:52.621Z,99.90
2018-04-23T06:59:20.351Z,99.90
2018-04-23T07:01:47.241Z,99.90
2018-04-23T07:04:14.229Z,99.90
2018-04-23T07:06:41.115Z,99.90
2018-04-23T07:09:08.708Z,99.90
2018-04-23T07:11:35.809Z,99.90
2018-04-23T07:14:02.843Z,99.90
2018-04-23T07:16:29.781Z,99.90
2018-04-23T07:18:56.722Z,99.90
2018-04-23T07:21:24.590Z,99.90
2018-04-23T07:23:51.545Z,99.90
2018-04-23T07:26:18.409Z,99.90
2018-04-23T07:28:45.278Z,99.90
2018-04-23T07:31:12.946Z,99.90
2018-04-23T07:33:40.590Z,99.90
2018-04-23T07:36:07.536Z,99.90
2018-04-23T07:38:34.406Z,99.90
2018-04-23T07:41:01.271Z,99.90
2018-04-23T07:43:28.219Z,99.90
2018-04-23T07:45:55.101Z,99.90
2018-04-23T07:48:21.997Z,99.90
2018-04-23T07:50:48.989Z,99.90
2018-04-23T07:53:15.853Z,99.90
2018-04-23T07:55:43.521Z,99.90
2018-04-23T07:58:11.121Z,99.90
2018-04-23T08:00:38.048Z,99.90
2018-04-23T08:03:04.928Z,99.90
2018-04-23T08:05:31.925Z,99.90
2018-04-23T08:07:59.551Z,99.90
2018-04-23T08:10:26.497Z,99.90
2018-04-23T08:12:53.375Z,99.90
2018-04-23T08:15:21.048Z,99.90
2018-04-23T08:17:48.017Z,99.90
2018-04-23T08:20:14.881Z,99.90
2018-04-23T08:22:41.790Z,99.90
2018-04-23T08:25:08.717Z,99.90
2018-04-23T08:27:36.410Z,99.90
2018-04-23T08:30:03.410Z,99.90
2018-04-23T08:32:31.097Z,99.90
2018-04-23T08:34:58.760Z,99.90
2018-04-23T08:37:26.478Z,99.90
2018-04-23T08:39:53.462Z,99.90
2018-04-23T08:42:21.088Z,99.90
2018-04-23T08:44:48.048Z,99.90
2018-04-23T08:47:14.923Z,99.90
2018-04-23T08:49:42.588Z,99.90
2018-04-23T08:52:10.256Z,99.90
2018-04-23T08:54:37.256Z,99.90
2018-04-23T08:57:05.153Z,99.90
2018-04-23T08:59:32.022Z,99.90
2018-04-23T09:01:59.001Z,99.30
2018-04-23T09:04:25.876Z,97.70
2018-04-23T09:06:52.801Z,96.20
2018-04-23T09:09:19.760Z,96.10
2018-04-23T09:11:46.685Z,96.80
2018-04-23T09:14:13.625Z,97.10
2018-04-23T09:16:40.568Z,97.60
2018-04-23T09:19:07.450Z,98.40
2018-04-23T09:21:34.360Z,98.90
2018-04-23T09:24:01.221Z,99.30
2018-04-23T09:26:28.149Z,99.90
2018-04-23T09:28:55.064Z,99.90
2018-04-23T09:31:21.947Z,99.20
2018-04-23T09:33:48.885Z,97.60
2018-04-23T09:36:15.837Z,96.30
2018-04-23T09:38:42.760Z,95.10
2018-04-23T09:41:09.713Z,94.30
2018-04-23T09:43:36.569Z,93.50
2018-04-23T09:46:03.586Z,93.40
2018-04-23T09:48:30.453Z,92.90
2018-04-23T09:50:57.433Z,92.90
2018-04-23T09:53:24.307Z,93.20
2018-04-23T09:55:51.952Z,94.70
2018-04-23T09:58:19.065Z,94.50
2018-04-23T10:00:45.984Z,95.90
2018-04-23T10:03:12.994Z,96.80
2018-04-23T10:05:39.878Z,97.10
2018-04-23T10:08:06.763Z,96.50
2018-04-23T10:10:33.724Z,96.30
2018-04-23T10:13:00.580Z,96.20
2018-04-23T10:15:27.517Z,95.70
2018-04-23T10:17:54.440Z,94.70
2018-04-23T10:20:21.374Z,95.20
2018-04-23T10:22:48.290Z,94.70
2018-04-23T10:25:15.952Z,95.20
2018-04-23T10:27:42.888Z,95.20
2018-04-23T10:30:09.733Z,95.10
2018-04-23T10:32:36.591Z,95.40
2018-04-23T10:35:03.604Z,95.80
2018-04-23T10:37:30.512Z,95.40
2018-04-23T10:39:57.367Z,95.90
2018-04-23T10:42:24.322Z,96.00
2018-04-23T10:44:51.180Z,95.70
2018-04-23T10:47:18.037Z,95.40
2018-04-23T10:49:44.974Z,95.40
2018-04-23T10:52:11.900Z,94.80
2018-04-23T10:54:38.765Z,94.80
2018-04-23T10:57:05.709Z,94.60
2018-04-23T10:59:32.562Z,93.60
2018-04-23T11:01:59.526Z,92.70
2018-04-23T11:04:27.193Z,94.20
2018-04-23T11:06:55.250Z,93.90
2018-04-23T11:09:22.115Z,93.90
2018-04-23T11:11:49.773Z,91.60
2018-04-23T11:14:17.370Z,93.60
2018-04-23T11:16:44.355Z,93.60
2018-04-23T11:19:11.262Z,93.40
2018-04-23T11:21:38.159Z,93.60
2018-04-23T11:24:07.271Z,93.60
2018-04-23T11:26:37.153Z,92.00
2018-04-23T11:29:04.176Z,92.00
2018-04-23T11:31:33.342Z,91.80
2018-04-23T11:34:01.508Z,91.70
2018-04-23T11:36:28.400Z,92.10
2018-04-23T11:38:55.404Z,92.20
2018-04-23T11:41:22.279Z,92.10
2018-04-23T11:43:51.053Z,92.40
2018-04-23T11:46:18.035Z,92.40
2018-04-23T11:48:45.795Z,92.80
2018-04-23T11:51:12.912Z,93.10
2018-04-23T11:53:39.810Z,92.80
2018-04-23T11:56:06.689Z,92.90
2018-04-23T11:58:34.351Z,92.30
2018-04-23T12:01:01.242Z,92.20
2018-04-23T12:03:39.469Z,93.20
2018-04-23T12:06:08.942Z,93.10
2018-04-23T12:08:40.194Z,92.50
2018-04-23T12:11:07.885Z,93.00
2018-04-23T12:16:15.237Z,93.10
2018-04-23T12:18:44.272Z,93.10
2018-04-23T12:21:23.820Z,93.70
2018-04-23T12:23:50.681Z,93.20
2018-04-23T12:26:17.608Z,93.70
2018-04-23T12:28:44.891Z,94.20
2018-04-23T12:31:12.573Z,95.80
2018-04-23T12:33:40.182Z,95.00
2018-04-23T12:36:19.537Z,95.00
2018-04-23T12:38:47.036Z,95.10
2018-04-23T12:41:13.978Z,95.90
2018-04-23T12:43:40.902Z,96.60
2018-04-23T12:46:08.579Z,97.10
2018-04-23T12:48:35.546Z,96.80
2018-04-23T12:51:03.211Z,97.30
2018-04-23T12:53:34.539Z,98.10
2018-04-23T12:56:02.690Z,98.40
2018-04-23T12:58:31.511Z,98.40
2018-04-23T13:00:58.535Z,99.30
2018-04-23T13:03:25.494Z,99.70
2018-04-23T13:05:52.639Z,99.70
2018-04-23T13:08:19.522Z,99.90
2018-04-23T13:10:46.494Z,99.90
2018-04-23T13:13:13.434Z,99.90
2018-04-23T13:15:40.758Z,99.90
2018-04-23T13:18:12.388Z,99.90
2018-04-23T13:20:39.981Z,99.90
2018-04-23T13:23:08.324Z,99.90
2018-04-23T13:25:39.309Z,99.90
2018-04-23T13:28:06.708Z,99.90
2018-04-23T13:30:34.498Z,99.90
2018-04-23T13:33:01.476Z,99.90
2018-04-23T13:35:28.421Z,99.90
2018-04-23T13:37:56.715Z,99.90
2018-04-23T13:40:24.262Z,99.90
2018-04-23T13:43:02.278Z,99.90
2018-04-23T13:45:32.647Z,99.90
2018-04-23T13:48:09.403Z,99.90
2018-04-23T13:50:43.650Z,99.90
2018-04-23T13:53:11.546Z,99.90
2018-04-23T13:55:38.757Z,99.90
2018-04-23T13:58:08.123Z,99.90
2018-04-23T14:00:35.143Z,99.90
2018-04-23T14:03:03.951Z,99.90
2018-04-23T14:05:40.235Z,99.90
2018-04-23T14:08:21.012Z,99.90
2018-04-23T14:11:04.798Z,99.90
2018-04-23T14:13:38.483Z,99.90
2018-04-23T14:16:05.448Z,99.90
2018-04-23T14:18:33.040Z,99.90
2018-04-23T14:21:00.000Z,99.90
2018-04-23T14:23:26.892Z,99.90
2018-04-23T14:25:54.590Z,99.90
2018-04-23T14:28:22.306Z,99.90
2018-04-23T14:31:03.081Z,99.90
2018-04-23T14:33:30.956Z,99.90
2018-04-23T14:35:58.641Z,99.90
2018-04-23T14:38:25.510Z,99.90
2018-04-23T14:40:52.385Z,99.90
2018-04-23T14:43:19.359Z,99.90
2018-04-23T14:45:52.116Z,99.90
2018-04-23T14:48:21.165Z,99.90
2018-04-23T14:50:57.019Z,99.90
2018-04-23T14:53:24.701Z,99.90
2018-04-23T14:55:59.860Z,99.90
2018-04-23T14:58:27.920Z,99.90
2018-04-23T15:00:55.453Z,99.90
2018-04-23T15:03:22.321Z,99.90
2018-04-23T15:05:49.212Z,99.90
2018-04-23T15:08:22.441Z,99.90
2018-04-23T15:10:49.327Z,99.90
2018-04-23T15:13:22.651Z,99.90
2018-04-23T15:15:50.065Z,99.90
2018-04-23T15:18:16.983Z,99.90
2018-04-23T15:20:50.017Z,99.90
2018-04-23T15:23:17.742Z,99.90
2018-04-23T15:25:45.412Z,99.90
2018-04-23T15:28:12.360Z,99.90
2018-04-23T15:30:39.590Z,99.90
2018-04-23T15:33:06.528Z,99.90
2018-04-23T15:35:33.404Z,99.90
2018-04-23T15:38:00.459Z,99.90
2018-04-23T15:40:27.695Z,99.90
2018-04-23T15:42:54.636Z,99.90
2018-04-23T15:45:21.613Z,99.90
2018-04-23T15:47:55.083Z,99.90
2018-04-23T15:50:27.193Z,99.90
2018-04-23T15:52:54.812Z,99.90
2018-04-23T15:55:21.689Z,99.90
2018-04-23T15:57:51.844Z,99.90
2018-04-23T16:00:23.790Z,99.90
2018-04-23T16:02:57.442Z,99.90
2018-04-23T16:05:24.872Z,99.90
2018-04-23T16:07:57.550Z,99.90
2018-04-23T16:10:29.868Z,99.90
2018-04-23T16:12:58.566Z,99.90
2018-04-23T16:15:29.867Z,99.90
2018-04-23T16:18:00.688Z,99.90
2018-04-23T16:20:32.956Z,99.90
2018-04-23T16:23:05.790Z,99.90
2018-04-23T16:25:35.264Z,99.90
2018-04-23T16:28:03.969Z,99.90
2018-04-23T16:30:32.946Z,99.90
2018-04-23T16:33:11.629Z,99.90
2018-04-23T16:35:55.817Z,99.90
2018-04-23T16:38:25.431Z,99.90
2018-04-23T16:41:01.650Z,99.90
2018-04-23T16:43:33.350Z,99.90
2018-04-23T16:46:01.331Z,99.90
2018-04-23T16:48:39.019Z,99.90
2018-04-23T16:51:17.645Z,99.90
2018-04-23T16:53:55.658Z,99.90
2018-04-23T16:56:30.358Z,99.90
2018-04-23T16:58:59.147Z,99.90
2018-04-23T17:01:28.433Z,99.90
2018-04-23T17:03:55.549Z,99.90
2018-04-23T17:06:23.136Z,99.90
2018-04-23T17:08:51.371Z,99.90
2018-04-23T17:11:18.529Z,99.90
2018-04-23T17:13:46.327Z,99.90
2018-04-23T17:16:13.724Z,99.90
2018-04-23T17:18:41.355Z,99.90
2018-04-23T17:21:10.181Z,99.90
2018-04-23T17:23:37.835Z,99.90
2018-04-23T17:26:05.500Z,99.90
2018-04-23T17:28:33.166Z,99.90
2018-04-23T17:31:00.778Z,99.90
2018-04-23T17:33:28.020Z,99.90
2018-04-23T17:35:54.993Z,99.90
2018-04-23T17:38:21.847Z,99.90
2018-04-23T17:40:48.801Z,99.90
2018-04-23T17:43:16.478Z,99.90
2018-04-23T17:45:44.086Z,99.90
2018-04-23T17:48:11.008Z,99.90
2018-04-23T17:50:37.933Z,99.90
2018-04-23T17:53:05.635Z,99.90
2018-04-23T17:55:32.573Z,99.90
2018-04-23T17:57:59.530Z,99.90
2018-04-23T18:00:26.384Z,99.90
2018-04-23T18:02:53.265Z,99.90
2018-04-23T18:05:20.203Z,99.90
2018-04-23T18:07:47.133Z,99.90
2018-04-23T18:10:14.071Z,99.90
2018-04-23T18:12:40.987Z,99.90
2018-04-23T18:15:07.953Z,99.90
2018-04-23T18:17:34.877Z,99.90
2018-04-23T18:20:01.839Z,99.90
2018-04-23T18:22:28.804Z,99.90
2018-04-23T18:24:55.702Z,99.90
2018-04-23T18:27:22.655Z,99.90
2018-04-23T18:29:49.599Z,99.90
2018-04-23T18:32:16.550Z,99.90
2018-04-23T18:34:43.451Z,99.90
2018-04-23T18:37:10.401Z,99.90
2018-04-23T18:39:37.273Z,99.90
2018-04-23T18:42:04.221Z,99.90
2018-04-23T18:44:31.127Z,99.90
2018-04-23T18:47:11.548Z,99.90
2018-04-23T18:49:39.040Z,99.90
2018-04-23T18:52:05.974Z,99.90
2018-04-23T18:54:32.966Z,99.90
2018-04-23T18:57:00.659Z,99.90
2018-04-23T18:59:27.653Z,99.90
2018-04-23T19:01:54.680Z,99.90
2018-04-23T19:04:21.576Z,99.90
2018-04-23T19:06:49.257Z,99.90
2018-04-23T19:09:16.212Z,99.90
2018-04-23T19:11:43.167Z,99.90
2018-04-23T19:14:10.052Z,99.90
2018-04-23T19:16:36.959Z,99.90
2018-04-23T19:19:03.830Z,99.90
2018-04-23T19:21:30.846Z,99.90
2018-04-23T19:24:04.405Z,99.90
2018-04-23T19:26:31.273Z,99.90
2018-04-23T19:28:58.142Z,99.90
2018-04-23T19:31:25.083Z,99.90
2018-04-23T19:33:52.035Z,99.90
2018-04-23T19:36:18.903Z,99.90
2018-04-23T19:38:46.999Z,99.90
2018-04-23T19:41:13.992Z,99.90
2018-04-23T19:43:41.929Z,99.90
2018-04-23T19:46:10.612Z,99.90
2018-04-23T19:48:37.589Z,99.90
2018-04-23T19:51:05.200Z,99.90
2018-04-23T19:53:33.474Z,99.90
2018-04-23T19:56:00.460Z,99.90
2018-04-23T19:58:27.396Z,99.90
2018-04-23T20:00:56.058Z,99.90
2018-04-23T20:03:23.117Z,99.90
2018-04-23T20:05:51.443Z,99.90
2018-04-23T20:08:18.452Z,99.90
2018-04-23T20:10:46.125Z,99.90
2018-04-23T20:13:14.468Z,99.90
2018-04-23T20:15:41.381Z,99.90
2018-04-23T20:18:08.325Z,99.90
2018-04-23T20:20:35.206Z,99.90
2018-04-23T20:23:02.248Z,99.90
2018-04-23T20:25:29.207Z,99.90
2018-04-23T20:27:56.161Z,99.90
2018-04-23T20:30:24.109Z,99.90
2018-04-23T20:32:51.403Z,99.90
2018-04-23T20:35:20.481Z,99.90
2018-04-23T20:37:47.553Z,99.90
2018-04-23T20:40:14.533Z,99.90
2018-04-23T20:42:43.481Z,99.90
2018-04-23T20:45:10.446Z,99.90
2018-04-23T20:47:37.389Z,99.90
2018-04-23T20:50:04.259Z,99.90
2018-04-23T20:52:31.213Z,99.90
2018-04-23T20:54:58.082Z,99.90
2018-04-23T20:57:25.111Z,99.90
2018-04-23T20:59:52.198Z,99.90
2018-04-23T21:02:20.493Z,99.90
2018-04-23T21:04:48.385Z,99.90
2018-04-23T21:07:15.489Z,99.90
2018-04-23T21:09:44.025Z,99.90
2018-04-23T21:12:11.657Z,99.90
2018-04-23T21:14:38.728Z,99.90
2018-04-23T21:17:07.000Z,99.90
2018-04-23T21:19:33.993Z,99.90
2018-04-23T21:22:00.933Z,99.90
2018-04-23T21:24:27.804Z,99.90
2018-04-23T21:26:55.713Z,99.90
2018-04-23T21:29:22.616Z,99.90
2018-04-23T21:31:49.529Z,99.90
2018-04-23T21:34:16.582Z,99.90
2018-04-23T21:36:46.261Z,99.90
2018-04-23T21:39:13.135Z,99.90
2018-04-23T21:41:44.347Z,99.90
2018-04-23T21:44:11.694Z,99.90
2018-04-23T21:46:38.674Z,99.90
2018-04-23T21:49:10.537Z,99.90
2018-04-23T21:51:38.198Z,99.90
2018-04-23T21:54:05.885Z,99.90
2018-04-23T21:56:33.369Z,99.90
2018-04-23T21:59:01.011Z,99.90
2018-04-23T22:01:27.965Z,99.90
2018-04-23T22:03:54.837Z,99.90
2018-04-23T22:06:21.781Z,99.90
2018-04-23T22:08:49.393Z,99.90
2018-04-23T22:11:16.322Z,99.90
2018-04-23T22:13:43.217Z,99.90
2018-04-23T22:16:10.152Z,99.90
2018-04-23T22:18:37.849Z,99.90
2018-04-23T22:21:05.571Z,99.90
2018-04-23T22:23:32.453Z,99.90
2018-04-23T22:25:59.381Z,99.90
2018-04-23T22:28:26.313Z,99.90
2018-04-23T22:30:53.241Z,99.90
2018-04-23T22:33:20.117Z,99.90
2018-04-23T22:35:47.044Z,99.90
2018-04-23T22:38:13.921Z,99.90
2018-04-23T22:40:41.641Z,99.90
2018-04-23T22:43:08.555Z,99.90
2018-04-23T22:45:35.505Z,99.90
2018-04-23T22:48:02.442Z,99.90
2018-04-23T22:50:29.374Z,99.90
2018-04-23T22:52:56.315Z,99.90
2018-04-23T22:55:23.931Z,99.90
2018-04-23T22:57:50.868Z,99.90
2018-04-23T23:00:18.665Z,99.90
2018-04-23T23:02:45.532Z,99.90
2018-04-23T23:05:13.231Z,99.90
2018-04-23T23:07:40.118Z,99.90
2018-04-23T23:10:07.063Z,99.90
2018-04-23T23:12:33.993Z,99.90
2018-04-23T23:15:00.904Z,99.90
2018-04-23T23:17:27.827Z,99.90
2018-04-23T23:19:54.744Z,99.90
2018-04-23T23:22:21.702Z,99.90
2018-04-23T23:24:48.603Z,99.90
2018-04-23T23:27:15.551Z,99.90
2018-04-23T23:29:42.434Z,99.90
2018-04-23T23:32:09.365Z,99.90
2018-04-23T23:34:36.253Z,99.90
2018-04-23T23:37:03.223Z,99.90
2018-04-23T23:39:30.170Z,99.90
2018-04-23T23:41:57.068Z,99.90
2018-04-23T23:44:24.765Z,99.90
2018-04-23T23:46:51.736Z,99.90
2018-04-23T23:49:18.618Z,99.90
2018-04-23T23:51:45.540Z,99.90
2018-04-23T23:54:12.407Z,99.90
2018-04-23T23:56:40.090Z,99.90
2018-04-23T23:59:07.772Z,99.90
